createdAt,value
2023-06-19T00:20:02.062Z,100.0
2023-06-19T00:30:01.143Z,100.0
2023-06-19T01:10:01.177Z,100.0
2023-06-19T01:20:02.604Z,100.0
2023-06-19T01:40:01.361Z,100.0
2023-06-19T02:20:01.567Z,100.0
2023-06-19T02:30:01.063Z,100.0
2023-06-19T03:00:01.353Z,100.0
2023-06-19T03:10:00.239Z,100.0
2023-06-19T03:30:01.324Z,100.0
2023-06-19T03:50:19.443Z,100.0
2023-06-19T04:10:01.207Z,100.0
2023-06-19T04:20:01.440Z,100.0
2023-06-19T04:40:01.409Z,100.0
2023-06-19T04:50:01.146Z,100.0
2023-06-19T05:00:01.377Z,100.0
2023-06-19T05:10:01.135Z,100.0
2023-06-19T05:30:01.390Z,100.0
2023-06-19T05:40:01.172Z,100.0
2023-06-19T05:50:01.259Z,100.0
2023-06-19T06:30:01.121Z,100.0
2023-06-19T07:50:01.166Z,100.0
2023-06-19T08:10:13.756Z,100.0
2023-06-19T08:20:01.085Z,100.0
2023-06-19T08:30:01.150Z,100.0
2023-06-19T08:40:01.516Z,100.0
2023-06-19T09:00:01.111Z,100.0
2023-06-19T09:10:01.089Z,100.0
2023-06-19T09:40:01.122Z,100.0
2023-06-19T10:20:01.620Z,100.0
2023-06-19T10:50:01.189Z,100.0
2023-06-19T11:10:01.080Z,100.0
2023-06-19T11:40:01.151Z,92.3
2023-06-19T12:00:01.264Z,65.9
2023-06-19T12:20:02.444Z,58.6
2023-06-19T12:30:01.438Z,58.0
2023-06-19T12:40:00.913Z,53.3
2023-06-19T13:50:01.509Z,46.0
2023-06-19T14:00:01.513Z,48.6
2023-06-19T14:20:01.656Z,47.1
2023-06-19T14:30:01.560Z,45.6
2023-06-19T14:50:01.224Z,44.4
2023-06-19T15:00:01.280Z,43.7
2023-06-19T15:50:01.153Z,42.0
2023-06-19T16:10:01.137Z,42.4
2023-06-19T16:20:01.189Z,42.5
2023-06-19T16:30:01.115Z,41.5
2023-06-19T17:30:01.352Z,48.5
2023-06-19T17:40:01.143Z,56.5
2023-06-19T18:50:01.148Z,85.8
2023-06-19T19:00:01.248Z,89.2
2023-06-19T19:20:01.650Z,92.7
2023-06-19T19:40:00.574Z,98.6
2023-06-19T19:50:01.075Z,100.0
2023-06-19T20:10:01.073Z,100.0
2023-06-19T20:20:00.601Z,100.0
2023-06-19T20:50:01.472Z,100.0
2023-06-19T21:00:01.425Z,100.0
2023-06-19T21:10:01.326Z,100.0
2023-06-19T21:40:01.332Z,100.0
2023-06-19T21:50:01.394Z,100.0
2023-06-19T22:00:01.449Z,100.0
2023-06-19T22:10:01.403Z,100.0
2023-06-19T22:20:01.418Z,100.0
2023-06-19T22:40:01.491Z,100.0
2023-06-19T22:50:01.345Z,100.0
2023-06-19T23:00:03.289Z,100.0
2023-06-19T23:20:01.357Z,100.0
2023-06-19T23:50:02.186Z,100.0
